createdAt,value
2023-01-11T00:00:56.834Z,101983.27
2023-01-11T00:03:23.866Z,101982.59
2023-01-11T00:05:50.988Z,101985.89
2023-01-11T00:08:19.503Z,101982.13
2023-01-11T00:10:46.532Z,101982.33
2023-01-11T00:13:14.414Z,101977.34
2023-01-11T00:15:41.614Z,101972.23
2023-01-11T00:18:10.131Z,101961.41
2023-01-11T00:20:41.997Z,101964.69
2023-01-11T00:23:09.268Z,101962.45
2023-01-11T00:25:37.245Z,101963.33
2023-01-11T00:28:04.667Z,101958.00
2023-01-11T00:30:31.711Z,101964.23
2023-01-11T00:33:00.284Z,101966.33
2023-01-11T00:35:30.417Z,101968.94
2023-01-11T00:37:57.679Z,101973.66
2023-01-11T00:40:26.558Z,101969.88
2023-01-11T00:43:12.292Z,101960.08
2023-01-11T00:45:58.605Z,101958.88
2023-01-11T00:48:25.881Z,101955.58
2023-01-11T00:50:55.437Z,101945.59
2023-01-11T00:53:22.702Z,101961.27
2023-01-11T00:55:49.806Z,101949.04
2023-01-11T00:58:16.886Z,101948.34
2023-01-11T01:00:43.900Z,101951.77
2023-01-11T01:03:11.001Z,101957.27
2023-01-11T01:05:39.216Z,101964.17
2023-01-11T01:08:06.722Z,101966.42
2023-01-11T01:10:33.878Z,101956.79
2023-01-11T01:13:19.408Z,101954.05
2023-01-11T01:15:46.367Z,101961.32
2023-01-11T01:18:13.388Z,101959.08
2023-01-11T01:20:40.440Z,101962.71
2023-01-11T01:23:07.428Z,101972.02
2023-01-11T01:25:37.454Z,101969.08
2023-01-11T01:28:04.704Z,101966.47
2023-01-11T01:30:31.857Z,101978.17
2023-01-11T01:32:59.030Z,101978.70
2023-01-11T01:35:26.080Z,101977.02
2023-01-11T01:37:53.211Z,101975.30
2023-01-11T01:40:21.287Z,101978.57
2023-01-11T01:42:52.595Z,101980.29
2023-01-11T01:45:28.684Z,101984.09
2023-01-11T01:48:01.951Z,101984.63
2023-01-11T01:50:41.773Z,101985.48
2023-01-11T01:53:14.465Z,101989.27
2023-01-11T01:55:45.736Z,101993.06
2023-01-11T01:58:16.900Z,101990.18
2023-01-11T02:00:45.950Z,101988.81
2023-01-11T02:03:18.602Z,101995.00
2023-01-11T02:05:46.373Z,101997.73
2023-01-11T02:08:37.335Z,101999.26
2023-01-11T02:11:25.019Z,102003.55
2023-01-11T02:13:52.177Z,102008.04
2023-01-11T02:16:19.203Z,102003.06
2023-01-11T02:18:46.669Z,101996.54
2023-01-11T02:21:47.832Z,102006.55
2023-01-11T02:24:17.940Z,102005.88
2023-01-11T02:27:06.510Z,102007.55
2023-01-11T02:29:41.272Z,102007.90
2023-01-11T02:32:44.039Z,102014.46
2023-01-11T02:35:31.539Z,102011.73
2023-01-11T02:38:02.411Z,102015.35
2023-01-11T02:41:15.502Z,102007.09
2023-01-11T02:44:20.854Z,102005.90
2023-01-11T02:47:01.605Z,102007.29
2023-01-11T02:49:40.958Z,102009.91
2023-01-11T02:52:19.337Z,102002.72
2023-01-11T02:54:54.228Z,101996.54
2023-01-11T02:57:25.651Z,101995.85
2023-01-11T02:59:55.157Z,102000.84
2023-01-11T03:02:22.166Z,102003.08
2023-01-11T03:04:49.179Z,102007.06
2023-01-11T03:07:37.667Z,102006.91
2023-01-11T03:10:10.824Z,102004.34
2023-01-11T03:13:03.843Z,102002.98
2023-01-11T03:16:02.346Z,102004.70
2023-01-11T03:19:09.722Z,102008.66
2023-01-11T03:21:52.093Z,102008.67
2023-01-11T03:24:38.943Z,102012.50
2023-01-11T03:27:23.039Z,102007.20
2023-01-11T03:29:52.973Z,102009.10
2023-01-11T03:32:32.144Z,101999.96
2023-01-11T03:35:13.332Z,102001.00
2023-01-11T03:37:54.924Z,102004.98
2023-01-11T03:40:36.597Z,102000.15
2023-01-11T03:43:13.434Z,101997.22
2023-01-11T03:45:58.288Z,101997.05
2023-01-11T03:48:35.017Z,101993.83
2023-01-11T03:51:04.345Z,101991.09
2023-01-11T03:53:35.546Z,101989.07
2023-01-11T03:56:07.009Z,101983.23
2023-01-11T03:58:34.185Z,101981.16
2023-01-11T04:01:02.746Z,101979.79
2023-01-11T04:03:30.154Z,101979.63
2023-01-11T04:06:00.422Z,101977.56
2023-01-11T04:08:28.007Z,101976.70
2023-01-11T04:10:56.037Z,101979.63
2023-01-11T04:13:23.051Z,101975.84
2023-01-11T04:15:50.046Z,101981.55
2023-01-11T04:18:17.059Z,101980.89
2023-01-11T04:20:46.747Z,101979.69
2023-01-11T04:23:15.288Z,101984.86
2023-01-11T04:25:42.347Z,101991.61
2023-01-11T04:28:09.465Z,101999.58
2023-01-11T04:30:37.420Z,101998.73
2023-01-11T04:33:04.622Z,101994.23
2023-01-11T04:35:31.673Z,101994.59
2023-01-11T04:37:58.850Z,101990.09
2023-01-11T04:40:25.867Z,101994.59
2023-01-11T04:42:52.889Z,101989.58
2023-01-11T04:45:19.947Z,101984.90
2023-01-11T04:47:46.960Z,101986.95
2023-01-11T04:50:14.100Z,101986.77
2023-01-11T04:52:41.945Z,101989.34
2023-01-11T04:55:09.528Z,101994.00
2023-01-11T04:57:36.779Z,101996.58
2023-01-11T05:00:11.106Z,101991.75
2023-01-11T05:02:38.744Z,101993.65
2023-01-11T05:05:07.596Z,101994.52
2023-01-11T05:07:35.064Z,101999.17
2023-01-11T05:10:02.945Z,102003.65
2023-01-11T05:12:29.931Z,102001.23
2023-01-11T05:14:57.430Z,101999.16
2023-01-11T05:17:24.400Z,102002.27
2023-01-11T05:19:51.438Z,102003.84
2023-01-11T05:22:18.443Z,101994.02
2023-01-11T05:24:45.488Z,102003.72
2023-01-11T05:27:12.626Z,102004.04
2023-01-11T05:29:39.614Z,102003.34
2023-01-11T05:32:06.737Z,102000.40
2023-01-11T05:34:33.913Z,101994.89
2023-01-11T05:37:00.908Z,101996.15
2023-01-11T05:39:28.008Z,101993.05
2023-01-11T05:41:55.096Z,101997.02
2023-01-11T05:44:40.694Z,101996.35
2023-01-11T05:47:07.686Z,101996.55
2023-01-11T05:49:34.697Z,102000.20
2023-01-11T05:52:01.703Z,102001.29
2023-01-11T05:54:28.735Z,101993.92
2023-01-11T05:56:57.975Z,102002.75
2023-01-11T05:59:26.999Z,102010.21
2023-01-11T06:01:54.218Z,102011.08
2023-01-11T06:04:21.278Z,102016.83
2023-01-11T06:06:48.347Z,102013.96
2023-01-11T06:09:15.380Z,102021.28
2023-01-11T06:11:42.487Z,102022.91
2023-01-11T06:14:09.482Z,102015.20
2023-01-11T06:16:36.612Z,102009.73
2023-01-11T06:19:03.821Z,102010.33
2023-01-11T06:21:30.839Z,102003.14
2023-01-11T06:23:57.863Z,102007.17
2023-01-11T06:26:25.060Z,102008.61
2023-01-11T06:28:52.295Z,101997.92
2023-01-11T06:31:20.156Z,101995.89
2023-01-11T06:33:47.811Z,101992.98
2023-01-11T06:36:15.894Z,101997.85
2023-01-11T06:38:43.780Z,101999.63
2023-01-11T06:41:12.671Z,102000.02
2023-01-11T06:43:42.305Z,102003.35
2023-01-11T06:46:14.836Z,102006.52
2023-01-11T06:48:42.350Z,102004.78
2023-01-11T06:51:12.703Z,102011.90
2023-01-11T06:53:41.818Z,102002.58
2023-01-11T06:56:13.685Z,101998.09
2023-01-11T06:58:40.772Z,102000.71
2023-01-11T07:01:08.140Z,102004.01
2023-01-11T07:03:35.618Z,102005.56
2023-01-11T07:06:05.044Z,102011.98
2023-01-11T07:08:32.148Z,102018.05
2023-01-11T07:10:59.302Z,102019.63
2023-01-11T07:13:26.357Z,102022.58
2023-01-11T07:15:57.363Z,102024.64
2023-01-11T07:18:24.417Z,102023.77
2023-01-11T07:20:52.352Z,102020.65
2023-01-11T07:23:19.760Z,102015.63
2023-01-11T07:25:50.037Z,102020.29
2023-01-11T07:28:17.109Z,102016.29
2023-01-11T07:30:57.555Z,102015.76
2023-01-11T07:33:25.824Z,102011.58
2023-01-11T07:35:52.903Z,102014.52
2023-01-11T07:38:20.107Z,102007.05
2023-01-11T07:40:47.303Z,102009.97
2023-01-11T11:03:51.783Z,101914.86
2023-01-11T11:06:40.198Z,101907.45
2023-01-11T11:09:07.199Z,101909.73
2023-01-11T11:11:53.424Z,101909.02
2023-01-11T11:14:30.921Z,101895.73
2023-01-11T11:17:04.568Z,101903.42
2023-01-11T11:19:33.417Z,101902.75
2023-01-11T11:22:00.889Z,101900.48
2023-01-11T11:24:37.720Z,101897.70
2023-01-11T11:27:17.305Z,101896.29
2023-01-11T11:29:51.495Z,101897.30
2023-01-11T11:32:29.132Z,101892.05
2023-01-11T11:34:56.343Z,101892.10
2023-01-11T11:37:26.874Z,101890.46
2023-01-11T11:39:55.412Z,101891.52
2023-01-11T11:42:23.884Z,101890.77
2023-01-11T11:45:09.378Z,101889.99
2023-01-11T11:47:38.085Z,101886.75
2023-01-11T11:50:37.093Z,101895.45
2023-01-11T11:53:07.595Z,101896.13
2023-01-11T11:55:35.671Z,101900.53
2023-01-11T11:58:08.736Z,101904.81
2023-01-11T12:00:44.434Z,101903.05
2023-01-11T12:03:18.786Z,101894.30
2023-01-11T12:05:56.422Z,101899.83
2023-01-11T12:08:27.284Z,101910.75
2023-01-11T12:10:58.541Z,101913.59
2023-01-11T12:13:30.620Z,101915.35
2023-01-11T12:16:03.284Z,101916.03
2023-01-11T12:18:43.127Z,101910.68
2023-01-11T12:21:39.623Z,101916.83
2023-01-11T12:24:19.692Z,101923.50
2023-01-11T12:27:07.453Z,101920.10
2023-01-11T12:29:37.542Z,101922.81
2023-01-11T12:32:16.398Z,101926.38
2023-01-11T12:35:04.357Z,101928.51
2023-01-11T12:37:40.315Z,101931.84
2023-01-11T12:40:34.688Z,101933.63
2023-01-11T12:43:46.886Z,101931.08
2023-01-11T12:46:47.367Z,101935.14
2023-01-11T12:49:29.788Z,101943.36
2023-01-11T12:52:10.772Z,101942.02
2023-01-11T12:54:43.295Z,101937.16
2023-01-11T13:00:16.590Z,101945.58
2023-01-11T13:02:59.254Z,101942.65
2023-01-11T13:05:55.012Z,101950.19
2023-01-11T13:08:36.395Z,101951.30
2023-01-11T13:11:43.679Z,101963.19
2023-01-11T13:14:22.304Z,101966.50
2023-01-11T13:17:09.778Z,101968.23
2023-01-11T13:20:08.760Z,101973.47
2023-01-11T13:22:40.739Z,101979.77
2023-01-11T13:25:20.104Z,101982.59
2023-01-11T13:27:49.820Z,101981.24
2023-01-11T13:30:20.071Z,101984.70
2023-01-11T13:32:56.645Z,101981.05
2023-01-11T13:35:45.617Z,101978.98
2023-01-11T13:38:20.295Z,101981.23
2023-01-11T13:40:51.877Z,101974.80
2023-01-11T13:43:44.952Z,101969.25
2023-01-11T13:46:16.506Z,101963.34
2023-01-11T13:48:51.701Z,101959.02
2023-01-11T13:51:41.426Z,101961.64
2023-01-11T13:54:22.144Z,101962.02
2023-01-11T13:57:15.843Z,101960.80
2023-01-11T13:59:56.389Z,101960.98
2023-01-11T14:02:32.880Z,101957.68
2023-01-11T14:05:06.936Z,101958.55
2023-01-11T14:07:41.174Z,101960.11
2023-01-11T14:10:44.675Z,101968.11
2023-01-11T14:13:11.745Z,101969.85
2023-01-11T14:15:54.431Z,101969.16
2023-01-11T14:18:25.732Z,101968.83
2023-01-11T14:21:06.335Z,101963.13
2023-01-11T14:23:55.146Z,101962.06
2023-01-11T14:26:43.839Z,101960.17
2023-01-11T14:29:17.084Z,101961.39
2023-01-11T14:32:18.515Z,101959.48
2023-01-11T14:35:06.245Z,101949.56
2023-01-11T14:37:50.426Z,101944.88
2023-01-11T14:40:32.623Z,101948.33
2023-01-11T14:43:21.361Z,101949.19
2023-01-11T14:45:51.339Z,101934.39
2023-01-11T14:48:30.711Z,101928.68
2023-01-11T14:51:33.370Z,101931.12
2023-01-11T14:54:26.282Z,101926.80
2023-01-11T14:56:57.027Z,101923.15
2023-01-11T14:59:30.318Z,101916.73
2023-01-11T15:02:03.695Z,101921.61
2023-01-11T15:04:58.363Z,101917.27
2023-01-11T15:07:31.603Z,101914.66
2023-01-11T15:10:02.073Z,101907.89
2023-01-11T15:12:38.514Z,101909.45
2023-01-11T15:15:07.976Z,101912.73
2023-01-11T15:17:53.658Z,101918.48
2023-01-11T15:20:22.957Z,101917.78
2023-01-11T15:22:58.740Z,101906.64
2023-01-11T15:25:28.733Z,101911.66
2023-01-11T15:27:56.671Z,101910.61
2023-01-11T15:30:34.291Z,101916.67
2023-01-11T15:33:19.907Z,101913.19
2023-01-11T15:35:56.304Z,101917.89
2023-01-11T15:38:35.018Z,101918.41
2023-01-11T15:41:23.929Z,101920.52
2023-01-11T15:44:28.979Z,101916.52
2023-01-11T15:47:08.233Z,101910.63
2023-01-11T15:50:06.695Z,101911.85
2023-01-11T15:52:50.764Z,101906.99
2023-01-11T15:55:48.462Z,101908.57
2023-01-11T15:58:33.840Z,101908.38
2023-01-11T16:01:22.443Z,101920.38
2023-01-11T16:04:21.913Z,101919.16
2023-01-11T16:06:54.772Z,101916.21
2023-01-11T16:09:34.064Z,101913.42
2023-01-11T16:12:13.461Z,101909.05
2023-01-11T16:15:23.727Z,101913.20
2023-01-11T16:17:51.431Z,101915.09
2023-01-11T16:20:21.437Z,101918.91
2023-01-11T16:23:01.355Z,101916.46
2023-01-11T16:25:37.039Z,101914.70
2023-01-11T16:28:06.078Z,101910.86
2023-01-11T16:30:34.411Z,101915.20
2023-01-11T16:33:21.933Z,101914.85
2023-01-11T16:35:49.710Z,101912.20
2023-01-11T16:38:22.605Z,101913.41
2023-01-11T16:40:53.331Z,101913.23
2023-01-11T16:43:33.647Z,101910.43
2023-01-11T16:46:00.688Z,101910.79
2023-01-11T16:48:30.783Z,101909.21
2023-01-11T16:50:58.172Z,101910.95
2023-01-11T16:53:26.805Z,101905.04
2023-01-11T16:56:05.615Z,101900.87
2023-01-11T16:58:37.907Z,101897.92
2023-01-11T17:01:06.770Z,101895.66
2023-01-11T17:03:43.928Z,101889.40
2023-01-11T17:06:22.657Z,101883.83
2023-01-11T17:08:50.920Z,101886.42
2023-01-11T17:11:38.057Z,101888.66
2023-01-11T17:14:47.778Z,101886.23
2023-01-11T17:17:15.044Z,101886.75
2023-01-11T17:19:50.127Z,101886.06
2023-01-11T17:22:17.097Z,101889.73
2023-01-11T17:24:51.430Z,101890.79
2023-01-11T17:27:41.105Z,101895.83
2023-01-11T17:30:19.470Z,101894.79
2023-01-11T17:32:49.799Z,101897.40
2023-01-11T17:35:37.153Z,101892.53
2023-01-11T17:38:08.725Z,101887.49
2023-01-11T17:40:39.508Z,101888.87
2023-01-11T17:43:29.362Z,101891.66
2023-01-11T17:45:58.675Z,101891.14
2023-01-11T17:48:27.672Z,101886.10
2023-01-11T17:50:57.496Z,101884.02
2023-01-11T17:53:26.977Z,101881.27
2023-01-11T17:56:27.307Z,101876.62
2023-01-11T17:59:15.509Z,101873.14
2023-01-11T18:01:49.161Z,101870.88
2023-01-11T18:04:19.361Z,101872.45
2023-01-11T18:06:48.689Z,101872.14
2023-01-11T18:09:24.130Z,101876.33
2023-01-11T18:11:53.446Z,101877.38
2023-01-11T18:14:31.046Z,101876.88
2023-01-11T18:17:04.613Z,101874.96
2023-01-11T18:19:42.802Z,101878.43
2023-01-11T18:22:30.658Z,101874.78
2023-01-11T18:25:00.063Z,101874.11
2023-01-11T18:27:28.873Z,101868.92
2023-01-11T18:29:58.024Z,101865.13
2023-01-11T18:32:26.433Z,101862.70
2023-01-11T18:34:54.789Z,101857.70
2023-01-11T18:37:22.007Z,101857.18
2023-01-11T18:39:50.929Z,101857.70
2023-01-11T18:42:23.085Z,101855.44
2023-01-11T18:44:50.063Z,101853.54
2023-01-11T18:47:17.024Z,101851.48
2023-01-11T18:49:44.107Z,101845.06
2023-01-11T18:52:11.415Z,101841.44
2023-01-11T18:54:39.475Z,101842.50
2023-01-11T18:57:07.620Z,101838.34
2023-01-11T18:59:35.176Z,101838.87
2023-01-11T19:02:17.264Z,101836.48
2023-01-11T19:04:45.415Z,101835.98
2023-01-11T19:07:13.040Z,101831.84
2023-01-11T19:09:40.957Z,101832.00
2023-01-11T19:12:08.387Z,101824.38
2023-01-11T19:14:35.426Z,101830.10
2023-01-11T19:17:04.837Z,101831.83
2023-01-11T19:19:31.888Z,101829.91
2023-01-11T19:21:58.938Z,101828.18
2023-01-11T19:24:25.941Z,101833.21
2023-01-11T19:26:53.071Z,101831.83
2023-01-11T19:29:20.575Z,101825.58
2023-01-11T19:31:48.187Z,101822.28
2023-01-11T19:34:15.315Z,101822.98
2023-01-11T19:36:42.539Z,101826.77
2023-01-11T19:39:09.971Z,101826.21
2023-01-11T19:41:58.129Z,101829.33
2023-01-11T19:44:27.173Z,101835.20
2023-01-11T19:47:09.689Z,101830.31
2023-01-11T19:49:37.927Z,101829.92
2023-01-11T19:52:12.383Z,101825.20
2023-01-11T19:54:43.692Z,101824.48
2023-01-11T19:57:14.350Z,101816.29
2023-01-11T19:59:42.498Z,101824.95
2023-01-11T20:02:12.692Z,101823.88
2023-01-11T20:04:40.360Z,101823.20
2023-01-11T20:07:09.744Z,101822.65
2023-01-11T20:09:38.045Z,101819.17
2023-01-11T20:12:07.077Z,101817.08
2023-01-11T20:14:34.701Z,101813.40
2023-01-11T20:17:02.655Z,101813.22
2023-01-11T20:19:30.353Z,101818.42
2023-01-11T20:21:57.477Z,101816.85
2023-01-11T20:24:29.190Z,101817.55
2023-01-11T20:26:58.447Z,101816.32
2023-01-11T20:29:25.693Z,101825.55
2023-01-11T20:31:53.142Z,101822.79
2023-01-11T20:34:20.939Z,101823.66
2023-01-11T20:36:49.118Z,101823.86
2023-01-11T20:39:17.587Z,101823.17
2023-01-11T20:41:47.475Z,101816.92
2023-01-11T20:44:19.752Z,101819.89
2023-01-11T20:46:48.457Z,101820.58
2023-01-11T20:49:17.105Z,101818.65
2023-01-11T20:51:45.811Z,101810.31
2023-01-11T20:54:12.958Z,101804.22
2023-01-11T20:56:41.052Z,101799.68
2023-01-11T20:59:09.732Z,101796.36
2023-01-11T21:01:37.611Z,101794.09
2023-01-11T21:04:07.399Z,101794.94
2023-01-11T21:06:37.045Z,101801.90
2023-01-11T21:09:05.255Z,101794.94
2023-01-11T21:11:32.735Z,101795.42
2023-01-11T21:14:01.759Z,101794.89
2023-01-11T21:16:29.709Z,101793.99
2023-01-11T21:19:01.759Z,101796.59
2023-01-11T21:21:29.642Z,101786.86
2023-01-11T21:23:59.684Z,101783.54
2023-01-11T21:26:27.936Z,101780.08
2023-01-11T21:29:00.747Z,101779.56
2023-01-11T21:31:30.641Z,101774.93
2023-01-11T21:33:59.302Z,101776.84
2023-01-11T21:36:28.062Z,101779.09
2023-01-11T21:38:56.996Z,101781.14
2023-01-11T21:41:48.450Z,101778.52
2023-01-11T21:44:16.718Z,101777.27
2023-01-11T21:46:45.119Z,101774.64
2023-01-11T21:49:13.343Z,101775.48
2023-01-11T21:51:41.146Z,101772.88
2023-01-11T21:54:13.604Z,101773.55
2023-01-11T21:56:43.898Z,101777.58
2023-01-11T21:59:10.892Z,101773.58
2023-01-11T22:01:39.818Z,101774.63
2023-01-11T22:04:12.561Z,101772.73
2023-01-11T22:06:41.799Z,101776.89
2023-01-11T22:09:11.314Z,101770.10
2023-01-11T22:11:39.204Z,101768.55
2023-01-11T22:14:08.851Z,101767.70
2023-01-11T22:16:37.441Z,101770.34
2023-01-11T22:19:07.522Z,101766.36
2023-01-11T22:21:36.137Z,101762.19
2023-01-11T22:24:03.522Z,101757.31
2023-01-11T22:26:33.543Z,101749.67
2023-01-11T22:29:12.941Z,101751.23
2023-01-11T22:31:41.754Z,101750.01
2023-01-11T22:34:09.859Z,101748.98
2023-01-11T22:36:37.147Z,101740.10
2023-01-11T22:39:04.501Z,101736.09
2023-01-11T22:41:32.549Z,101735.38
2023-01-11T22:43:59.813Z,101736.23
2023-01-11T22:46:27.860Z,101733.42
2023-01-11T22:48:55.172Z,101738.27
2023-01-11T22:51:25.938Z,101739.83
2023-01-11T22:53:55.222Z,101735.45
2023-01-11T22:56:25.835Z,101726.05
2023-01-11T22:58:54.005Z,101725.33
2023-01-11T23:01:34.022Z,101727.74
2023-01-11T23:04:02.044Z,101724.45
2023-01-11T23:06:34.418Z,101721.14
2023-01-11T23:09:01.490Z,101713.48
2023-01-11T23:11:50.767Z,101714.00
2023-01-11T23:14:19.816Z,101708.94
2023-01-11T23:16:49.343Z,101701.62
2023-01-11T23:19:18.938Z,101703.33
2023-01-11T23:21:47.311Z,101698.45
2023-01-11T23:24:15.865Z,101700.16
2023-01-11T23:26:43.116Z,101698.92
2023-01-11T23:29:10.350Z,101694.90
2023-01-11T23:31:37.870Z,101691.73
2023-01-11T23:34:07.157Z,101687.90
2023-01-11T23:36:38.565Z,101690.31
2023-01-11T23:39:07.809Z,101690.64
2023-01-11T23:41:53.766Z,101689.73
2023-01-11T23:44:20.832Z,101693.16
2023-01-11T23:47:06.648Z,101689.68
2023-01-11T23:49:34.106Z,101686.52
2023-01-11T23:52:01.743Z,101689.42
2023-01-11T23:54:31.907Z,101688.38
2023-01-11T23:57:00.254Z,101683.31
2023-01-11T23:59:27.438Z,101677.77
